createdAt,value
2022-07-25T00:02:21.753Z,7.40
2022-07-25T00:04:52.581Z,7.80
2022-07-25T00:07:23.063Z,7.70
2022-07-25T00:09:53.459Z,7.60
2022-07-25T00:12:24.039Z,7.50
2022-07-25T00:14:54.443Z,8.00
2022-07-25T00:17:25.027Z,8.00
2022-07-25T00:19:55.382Z,7.90
2022-07-25T00:22:25.956Z,8.20
2022-07-25T00:24:56.304Z,8.40
2022-07-25T00:27:27.002Z,8.40
2022-07-25T00:29:57.533Z,8.30
2022-07-25T00:32:27.868Z,8.70
2022-07-25T00:34:58.280Z,7.90
2022-07-25T00:37:28.677Z,8.10
2022-07-25T00:39:59.134Z,8.40
2022-07-25T00:42:29.528Z,8.20
2022-07-25T00:45:00.167Z,8.10
2022-07-25T00:47:30.670Z,8.20
2022-07-25T00:50:01.048Z,8.20
2022-07-25T00:52:31.719Z,8.40
2022-07-25T00:55:02.171Z,8.30
2022-07-25T00:57:32.598Z,8.10
2022-07-25T01:00:03.066Z,8.40
2022-07-25T01:02:33.648Z,8.30
2022-07-25T01:05:04.782Z,7.80
2022-07-25T01:07:35.374Z,7.90
2022-07-25T01:10:07.525Z,8.90
2022-07-25T01:12:50.230Z,8.80
2022-07-25T01:17:50.056Z,8.30
2022-07-25T01:20:22.030Z,8.10
2022-07-25T01:22:52.821Z,8.50
2022-07-25T01:25:24.044Z,8.40
2022-07-25T01:27:56.134Z,8.00
2022-07-25T01:30:27.354Z,8.60
2022-07-25T01:32:57.779Z,8.20
2022-07-25T01:35:28.219Z,9.00
2022-07-25T01:37:58.617Z,8.90
2022-07-25T01:40:29.610Z,8.50
2022-07-25T01:42:59.981Z,8.30
2022-07-25T01:45:30.471Z,8.10
2022-07-25T01:55:09.466Z,7.90
2022-07-25T01:57:40.341Z,8.60
2022-07-25T02:00:14.225Z,8.10
2022-07-25T02:02:45.431Z,8.10
2022-07-25T02:05:16.434Z,7.40
2022-07-25T02:07:46.863Z,7.50
2022-07-25T02:10:17.286Z,8.70
2022-07-25T02:12:47.669Z,7.70
2022-07-25T02:15:18.131Z,8.00
2022-07-25T02:17:48.490Z,8.00
2022-07-25T02:20:18.912Z,7.90
2022-07-25T02:22:49.290Z,7.90
2022-07-25T02:25:19.823Z,7.60
2022-07-25T02:27:50.339Z,7.90
2022-07-25T02:30:20.740Z,7.70
2022-07-25T02:32:51.125Z,8.30
2022-07-25T02:35:21.570Z,7.70
2022-07-25T02:37:52.028Z,7.80
2022-07-25T02:40:22.692Z,8.00
2022-07-25T02:42:53.113Z,7.60
2022-07-25T02:45:23.517Z,8.10
2022-07-25T02:47:54.088Z,7.80
2022-07-25T02:50:24.608Z,8.20
2022-07-25T02:52:55.193Z,7.70
2022-07-25T02:55:25.690Z,8.00
2022-07-25T02:57:56.107Z,7.80
2022-07-25T03:00:27.343Z,8.00
2022-07-25T03:02:58.289Z,8.20
2022-07-25T03:05:28.678Z,8.00
2022-07-25T03:07:59.154Z,7.80
2022-07-25T03:10:30.381Z,8.50
2022-07-25T03:13:00.980Z,8.60
2022-07-25T03:15:31.901Z,8.00
2022-07-25T03:18:02.402Z,8.00
2022-07-25T03:20:32.951Z,8.60
2022-07-25T03:23:03.564Z,7.80
2022-07-25T03:25:34.126Z,8.00
2022-07-25T03:28:04.637Z,8.50
2022-07-25T03:30:35.367Z,8.00
2022-07-25T03:33:05.980Z,7.90
2022-07-25T03:35:36.727Z,8.20
2022-07-25T03:38:07.745Z,8.60
2022-07-25T03:40:38.374Z,8.20
2022-07-25T03:43:09.143Z,8.80
2022-07-25T03:45:39.656Z,7.90
2022-07-25T03:48:10.625Z,9.10
2022-07-25T03:50:41.031Z,8.70
2022-07-25T03:53:11.507Z,8.60
2022-07-25T03:55:42.314Z,7.80
2022-07-25T03:58:12.735Z,8.50
2022-07-25T04:00:43.346Z,8.10
2022-07-25T04:03:14.414Z,8.70
2022-07-25T04:05:47.774Z,8.60
2022-07-25T04:08:18.465Z,8.30
2022-07-25T04:10:49.103Z,8.70
2022-07-25T04:13:19.514Z,8.70
2022-07-25T04:15:50.040Z,8.90
2022-07-25T04:18:25.203Z,8.80
2022-07-25T04:20:59.717Z,9.40
2022-07-25T04:23:31.264Z,9.50
2022-07-25T04:26:01.989Z,9.80
2022-07-25T04:28:33.083Z,9.20
2022-07-25T04:31:03.588Z,9.20
2022-07-25T04:33:34.582Z,9.60
2022-07-25T04:36:06.634Z,9.60
2022-07-25T04:42:59.928Z,9.70
2022-07-25T04:45:31.311Z,10.00
2022-07-25T04:48:02.995Z,10.00
2022-07-25T04:50:34.588Z,9.40
2022-07-25T04:53:06.116Z,10.10
2022-07-25T04:55:38.989Z,10.20
2022-07-25T04:58:10.488Z,10.40
2022-07-25T05:00:41.817Z,9.90
2022-07-25T05:03:12.949Z,10.60
2022-07-25T05:05:44.019Z,10.60
2022-07-25T05:08:14.443Z,10.40
2022-07-25T05:10:45.089Z,10.60
2022-07-25T05:13:16.285Z,9.70
2022-07-25T05:15:47.095Z,10.30
2022-07-25T05:18:17.611Z,9.70
2022-07-25T05:20:48.030Z,10.70
2022-07-25T05:23:18.584Z,10.60
2022-07-25T05:25:49.400Z,11.30
2022-07-25T05:28:21.544Z,10.40
2022-07-25T05:30:52.070Z,10.50
2022-07-25T05:33:22.497Z,11.00
2022-07-25T05:35:52.968Z,10.60
2022-07-25T05:38:23.615Z,11.10
2022-07-25T05:40:54.075Z,10.90
2022-07-25T05:43:24.590Z,12.20
2022-07-25T05:45:55.155Z,11.30
2022-07-25T05:48:25.583Z,10.70
2022-07-25T05:50:56.939Z,10.80
2022-07-25T05:53:27.373Z,11.20
2022-07-25T05:55:57.863Z,10.70
2022-07-25T05:58:30.067Z,10.80
2022-07-25T06:01:00.866Z,10.40
2022-07-25T06:03:31.262Z,10.60
2022-07-25T06:06:02.386Z,10.60
2022-07-25T06:08:33.859Z,11.00
2022-07-25T06:11:04.960Z,10.80
2022-07-25T06:13:35.786Z,11.60
2022-07-25T06:16:06.775Z,10.90
2022-07-25T06:18:37.158Z,10.60
2022-07-25T06:21:07.809Z,11.10
2022-07-25T06:23:38.233Z,10.70
2022-07-25T06:26:11.046Z,11.10
2022-07-25T06:28:41.379Z,10.80
2022-07-25T06:31:12.223Z,11.40
2022-07-25T06:33:42.765Z,11.20
2022-07-25T06:36:13.845Z,11.30
2022-07-25T06:38:44.475Z,10.70
2022-07-25T06:41:17.618Z,12.20
2022-07-25T06:43:48.113Z,10.90
2022-07-25T06:46:18.643Z,11.10
2022-07-25T06:48:49.220Z,11.20
2022-07-25T06:51:20.866Z,10.20
2022-07-25T06:53:51.222Z,10.40
2022-07-25T06:56:22.143Z,10.80
2022-07-25T06:58:53.309Z,11.70
2022-07-25T07:01:23.955Z,11.60
2022-07-25T07:03:54.462Z,11.80
2022-07-25T07:06:25.042Z,10.80
2022-07-25T07:08:56.143Z,10.80
2022-07-25T07:11:26.784Z,12.10
2022-07-25T07:13:57.752Z,10.50
2022-07-25T07:16:28.403Z,10.70
2022-07-25T07:18:59.274Z,11.10
2022-07-25T07:21:29.738Z,11.40
2022-07-25T07:24:00.301Z,10.60
2022-07-25T07:26:30.744Z,12.20
2022-07-25T07:29:02.890Z,11.70
2022-07-25T07:31:33.723Z,11.70
2022-07-25T07:34:04.608Z,11.70
2022-07-25T07:36:35.442Z,11.80
2022-07-25T07:39:06.334Z,10.70
2022-07-25T07:41:36.951Z,11.30
2022-07-25T07:44:08.047Z,11.40
2022-07-25T07:46:38.599Z,11.10
2022-07-25T07:49:09.519Z,10.70
2022-07-25T07:51:40.435Z,11.00
2022-07-25T07:54:28.403Z,11.70
2022-07-25T07:56:58.786Z,10.20
2022-07-25T07:59:29.151Z,10.90
2022-07-25T08:01:59.634Z,11.80
2022-07-25T08:04:30.322Z,10.80
2022-07-25T08:07:00.797Z,10.80
2022-07-25T08:09:31.143Z,10.50
2022-07-25T08:12:01.564Z,11.30
2022-07-25T08:14:31.931Z,11.30
2022-07-25T08:17:02.311Z,11.50
2022-07-25T08:19:33.075Z,12.30
2022-07-25T08:22:04.161Z,11.40
2022-07-25T08:24:34.548Z,11.80
2022-07-25T08:27:04.948Z,11.30
2022-07-25T08:29:35.396Z,10.10
2022-07-25T08:32:06.457Z,11.40
2022-07-25T08:34:36.776Z,11.40
2022-07-25T08:37:07.166Z,10.60
2022-07-25T08:39:37.629Z,11.20
2022-07-25T08:42:11.058Z,12.30
2022-07-25T08:44:45.301Z,12.90
2022-07-25T08:47:15.950Z,12.00
2022-07-25T08:49:46.376Z,11.80
2022-07-25T08:52:17.179Z,12.10
2022-07-25T08:54:48.659Z,12.80
2022-07-25T08:57:19.656Z,12.00
2022-07-25T08:59:50.146Z,11.80
2022-07-25T09:02:20.687Z,12.40
2022-07-25T09:04:51.370Z,11.80
2022-07-25T09:07:32.452Z,12.20
2022-07-25T09:10:14.765Z,11.30
2022-07-25T09:12:53.822Z,11.30
2022-07-25T09:15:29.622Z,12.40
2022-07-25T09:18:00.890Z,11.20
2022-07-25T09:20:42.211Z,11.30
2022-07-25T09:23:14.235Z,12.70
2022-07-25T09:25:44.824Z,12.30
2022-07-25T09:28:20.992Z,13.30
2022-07-25T09:30:59.539Z,11.80
2022-07-25T09:33:30.586Z,13.00
2022-07-25T09:36:01.025Z,12.60
2022-07-25T09:38:31.586Z,12.70
2022-07-25T09:41:03.071Z,13.30
2022-07-25T09:43:41.234Z,12.90
2022-07-25T09:46:12.536Z,13.20
2022-07-25T09:48:46.514Z,12.50
2022-07-25T09:51:17.015Z,12.90
2022-07-25T09:53:47.455Z,12.10
2022-07-25T09:56:17.833Z,12.00
2022-07-25T09:58:48.560Z,12.00
2022-07-25T10:01:23.786Z,11.10
2022-07-25T10:03:58.584Z,11.50
2022-07-25T10:06:35.776Z,11.90
2022-07-25T10:09:06.292Z,12.50
2022-07-25T10:11:36.685Z,12.10
2022-07-25T10:14:13.783Z,12.90
2022-07-25T10:16:50.042Z,12.80
2022-07-25T10:19:40.593Z,12.20
2022-07-25T10:22:11.161Z,12.00
2022-07-25T10:24:45.265Z,12.70
2022-07-25T10:27:24.920Z,11.50
2022-07-25T10:29:56.439Z,12.20
2022-07-25T10:32:29.345Z,11.60
2022-07-25T10:34:59.941Z,11.30
2022-07-25T10:37:32.515Z,12.60
2022-07-25T10:40:03.968Z,12.40
2022-07-25T10:45:09.336Z,12.40
2022-07-25T10:47:42.991Z,13.20
2022-07-25T10:50:25.537Z,12.90
2022-07-25T10:53:09.165Z,11.30
2022-07-25T10:55:39.598Z,11.20
2022-07-25T10:58:18.378Z,10.50
2022-07-25T11:00:51.174Z,10.80
2022-07-25T11:03:22.588Z,10.70
2022-07-25T11:05:54.652Z,10.70
2022-07-25T11:08:34.408Z,10.80
2022-07-25T11:11:05.498Z,10.70
2022-07-25T11:13:41.917Z,11.50
2022-07-25T11:16:12.660Z,11.50
2022-07-25T11:18:44.012Z,11.10
2022-07-25T11:23:43.363Z,11.60
2022-07-25T11:26:14.416Z,12.20
2022-07-25T11:28:46.869Z,11.70
2022-07-25T11:31:20.275Z,11.70
2022-07-25T11:33:51.562Z,11.70
2022-07-25T11:38:51.641Z,11.70
2022-07-25T11:41:31.699Z,11.40
2022-07-25T11:44:02.701Z,11.50
2022-07-25T11:46:44.878Z,11.70
2022-07-25T11:49:15.968Z,10.90
2022-07-25T11:51:47.050Z,11.30
2022-07-25T11:54:17.472Z,11.90
2022-07-25T11:56:48.156Z,10.70
2022-07-25T11:59:18.593Z,11.40
2022-07-25T12:01:49.424Z,11.70
2022-07-25T12:04:21.098Z,11.90
2022-07-25T12:06:51.869Z,11.60
2022-07-25T12:09:23.923Z,10.50
2022-07-25T12:12:05.591Z,10.00
2022-07-25T12:14:48.322Z,9.90
2022-07-25T12:17:19.369Z,9.50
2022-07-25T12:19:49.793Z,9.10
2022-07-25T12:22:20.236Z,9.40
2022-07-25T12:24:50.817Z,9.20
2022-07-25T12:27:21.192Z,8.70
2022-07-25T12:29:51.577Z,8.80
2022-07-25T12:32:22.210Z,8.90
2022-07-25T12:34:52.912Z,8.50
2022-07-25T12:37:23.346Z,9.00
2022-07-25T12:39:54.306Z,8.20
2022-07-25T12:42:24.975Z,8.60
2022-07-25T12:44:55.696Z,8.00
2022-07-25T12:47:26.713Z,8.60
2022-07-25T12:49:57.590Z,8.40
2022-07-25T12:52:27.994Z,7.70
2022-07-25T12:54:58.454Z,8.30
2022-07-25T12:57:29.219Z,7.60
2022-07-25T12:59:59.671Z,8.00
2022-07-25T13:02:30.113Z,9.30
2022-07-25T13:05:00.621Z,8.60
2022-07-25T13:07:31.100Z,8.00
2022-07-25T13:10:01.533Z,7.70
2022-07-25T13:12:32.404Z,8.40
2022-07-25T13:15:02.950Z,8.30
2022-07-25T13:17:33.682Z,8.20
2022-07-25T13:20:04.408Z,8.80
2022-07-25T13:22:34.702Z,8.40
2022-07-25T13:25:05.824Z,8.00
2022-07-25T13:27:36.317Z,8.60
2022-07-25T13:30:08.675Z,8.30
2022-07-25T13:32:38.992Z,8.20
2022-07-25T13:35:10.750Z,7.60
2022-07-25T13:40:11.074Z,8.10
2022-07-25T13:42:42.004Z,8.10
2022-07-25T13:45:13.564Z,7.60
2022-07-25T13:47:43.956Z,7.50
2022-07-25T13:50:14.377Z,7.50
2022-07-25T13:52:44.797Z,7.80
2022-07-25T13:55:15.188Z,7.80
2022-07-25T13:57:45.542Z,7.10
2022-07-25T14:00:16.885Z,7.70
2022-07-25T14:02:47.605Z,7.40
2022-07-25T14:07:46.977Z,7.90
2022-07-25T14:10:17.356Z,8.00
2022-07-25T14:12:47.745Z,8.10
2022-07-25T14:15:18.522Z,8.00
2022-07-25T14:17:49.043Z,7.80
2022-07-25T14:20:19.513Z,8.00
2022-07-25T14:22:50.033Z,7.40
2022-07-25T14:25:20.703Z,7.80
2022-07-25T14:27:51.064Z,7.30
2022-07-25T14:30:21.440Z,8.00
2022-07-25T14:32:51.815Z,8.30
2022-07-25T14:35:22.706Z,8.50
2022-07-25T14:37:53.708Z,8.80
2022-07-25T14:42:53.927Z,8.10
2022-07-25T14:45:24.665Z,7.30
2022-07-25T14:47:55.013Z,7.90
2022-07-25T14:50:27.619Z,8.70
2022-07-25T14:52:58.311Z,7.80
2022-07-25T14:55:28.924Z,8.00
2022-07-25T14:58:02.368Z,8.40
2022-07-25T15:00:33.728Z,8.40
2022-07-25T15:03:05.232Z,8.70
2022-07-25T15:05:36.040Z,7.80
2022-07-25T15:08:08.153Z,7.10
2022-07-25T15:10:39.057Z,7.70
2022-07-25T15:16:01.181Z,7.40
2022-07-25T15:18:36.058Z,7.40
2022-07-25T15:21:13.127Z,7.60
2022-07-25T15:26:12.835Z,7.80
2022-07-25T15:28:43.606Z,7.60
2022-07-25T15:33:43.489Z,7.80
2022-07-25T15:36:15.394Z,7.80
2022-07-25T15:38:46.921Z,8.10
2022-07-25T15:41:17.334Z,7.90
2022-07-25T15:43:47.858Z,7.50
2022-07-25T15:46:19.002Z,7.40
2022-07-25T15:48:49.779Z,7.60
2022-07-25T15:51:20.357Z,7.80
2022-07-25T15:53:50.747Z,7.60
2022-07-25T15:56:21.174Z,8.00
2022-07-25T15:58:53.570Z,8.20
2022-07-25T16:01:25.446Z,8.00
2022-07-25T16:04:00.134Z,8.40
2022-07-25T16:06:31.794Z,7.80
2022-07-25T16:09:04.350Z,7.90
2022-07-25T16:11:38.798Z,8.00
2022-07-25T16:14:11.935Z,7.90
2022-07-25T16:16:44.902Z,8.00
2022-07-25T16:19:18.190Z,7.80
2022-07-25T16:21:49.829Z,7.80
2022-07-25T16:24:24.501Z,7.70
2022-07-25T16:26:56.851Z,7.70
2022-07-25T16:29:28.634Z,7.80
2022-07-25T16:32:00.857Z,8.10
2022-07-25T16:34:34.409Z,8.10
2022-07-25T16:37:06.603Z,8.50
2022-07-25T16:39:38.957Z,8.70
2022-07-25T16:42:11.876Z,9.10
2022-07-25T16:44:42.709Z,8.80
2022-07-25T16:47:15.992Z,8.30
2022-07-25T16:49:48.231Z,8.30
2022-07-25T16:52:20.037Z,7.80
2022-07-25T16:54:52.513Z,8.10
2022-07-25T16:57:25.240Z,8.80
2022-07-25T17:06:41.692Z,7.30
2022-07-25T17:09:12.568Z,7.80
2022-07-25T17:11:43.007Z,7.40
2022-07-25T17:14:13.392Z,7.60
2022-07-25T17:16:44.311Z,7.60
2022-07-25T17:19:14.800Z,7.10
2022-07-25T17:21:45.363Z,7.20
2022-07-25T17:24:15.723Z,7.00
2022-07-25T17:26:46.259Z,6.40
2022-07-25T17:29:17.505Z,6.40
2022-07-25T17:31:48.054Z,5.80
2022-07-25T17:34:18.593Z,5.40
2022-07-25T17:36:50.133Z,5.20
2022-07-25T17:39:20.715Z,4.90
2022-07-25T17:41:52.101Z,5.20
2022-07-25T17:44:22.490Z,5.10
2022-07-25T17:46:54.204Z,5.40
2022-07-25T17:49:24.956Z,4.50
2022-07-25T17:51:55.339Z,4.50
2022-07-25T17:54:27.067Z,4.60
2022-07-25T17:56:57.633Z,4.00
2022-07-25T17:59:28.068Z,3.90
2022-07-25T18:01:58.556Z,4.10
2022-07-25T18:04:29.264Z,3.80
2022-07-25T18:06:59.674Z,4.40
2022-07-25T18:09:30.114Z,3.80
2022-07-25T18:12:01.024Z,3.80
2022-07-25T18:14:31.942Z,3.80
2022-07-25T18:17:02.625Z,3.70
2022-07-25T18:19:33.014Z,3.80
2022-07-25T18:22:03.476Z,3.40
2022-07-25T18:24:34.154Z,3.50
2022-07-25T18:27:05.546Z,3.30
2022-07-25T18:29:38.629Z,3.30
2022-07-25T18:32:09.583Z,3.40
2022-07-25T18:34:40.358Z,3.70
2022-07-25T18:37:11.008Z,3.10
2022-07-25T18:39:42.119Z,3.60
2022-07-25T18:42:12.598Z,3.00
2022-07-25T18:44:43.192Z,3.30
2022-07-25T18:47:14.080Z,3.40
2022-07-25T18:49:44.516Z,3.10
2022-07-25T18:52:15.013Z,3.40
2022-07-25T18:54:45.450Z,3.60
2022-07-25T18:57:15.990Z,3.50
2022-07-25T18:59:46.477Z,3.30
2022-07-25T19:02:16.939Z,3.00
2022-07-25T19:04:47.747Z,3.30
2022-07-25T19:07:18.427Z,3.20
2022-07-25T19:09:48.993Z,3.10
2022-07-25T19:12:19.388Z,3.30
2022-07-25T19:14:49.866Z,3.20
2022-07-25T19:17:20.386Z,3.40
2022-07-25T19:19:50.956Z,3.30
2022-07-25T19:22:21.619Z,3.10
2022-07-25T19:24:52.039Z,3.40
2022-07-25T19:27:24.882Z,3.60
2022-07-25T19:29:55.725Z,3.10
2022-07-25T19:32:26.239Z,3.00
2022-07-25T19:34:57.533Z,3.70
2022-07-25T19:37:28.337Z,3.70
2022-07-25T19:39:59.312Z,3.40
2022-07-25T19:42:33.298Z,3.40
2022-07-25T19:45:04.124Z,3.10
2022-07-25T19:47:34.635Z,3.40
2022-07-25T19:50:05.746Z,3.20
2022-07-25T19:52:36.456Z,3.10
2022-07-25T19:55:08.019Z,3.00
2022-07-25T19:57:38.417Z,3.50
2022-07-25T20:00:10.527Z,3.40
2022-07-25T20:02:44.007Z,3.00
2022-07-25T20:05:14.604Z,3.10
2022-07-25T20:07:45.378Z,3.20
2022-07-25T20:10:17.766Z,3.20
2022-07-25T20:12:48.671Z,3.90
2022-07-25T20:15:19.099Z,2.90
2022-07-25T20:17:49.574Z,3.20
2022-07-25T20:20:19.967Z,3.30
2022-07-25T20:22:50.595Z,3.40
2022-07-25T20:25:21.589Z,3.50
2022-07-25T20:27:52.023Z,3.40
2022-07-25T20:30:22.609Z,3.00
2022-07-25T20:32:53.105Z,3.40
2022-07-25T20:35:23.455Z,3.30
2022-07-25T20:37:53.977Z,2.60
2022-07-25T20:40:25.121Z,3.60
2022-07-25T20:42:55.632Z,3.30
2022-07-25T20:45:26.314Z,3.20
2022-07-25T20:47:56.689Z,3.10
2022-07-25T20:50:27.113Z,3.30
2022-07-25T20:52:57.598Z,3.40
2022-07-25T20:55:28.484Z,2.90
2022-07-25T20:57:58.878Z,3.20
2022-07-25T21:00:30.540Z,3.00
2022-07-25T21:03:01.009Z,3.10
2022-07-25T21:05:31.571Z,2.80
2022-07-25T21:08:01.960Z,2.80
2022-07-25T21:10:32.422Z,3.30
2022-07-25T21:13:03.710Z,3.40
2022-07-25T21:15:34.370Z,3.10
2022-07-25T21:18:04.923Z,3.00
2022-07-25T21:20:35.303Z,3.20
2022-07-25T21:23:05.958Z,2.90
2022-07-25T21:25:41.879Z,3.80
2022-07-25T21:28:12.673Z,2.80
2022-07-25T21:30:44.075Z,3.40
2022-07-25T21:33:14.999Z,3.90
2022-07-25T21:35:49.388Z,3.20
2022-07-25T21:38:27.573Z,3.30
2022-07-25T21:40:58.808Z,3.30
2022-07-25T21:43:29.125Z,3.50
2022-07-25T21:45:59.604Z,3.50
2022-07-25T21:48:48.030Z,3.00
2022-07-25T21:51:19.296Z,3.10
2022-07-25T21:53:53.815Z,2.90
2022-07-25T21:56:24.169Z,3.40
2022-07-25T21:58:54.610Z,3.00
2022-07-25T22:01:25.302Z,3.30
2022-07-25T22:03:56.375Z,3.80
2022-07-25T22:06:27.212Z,3.20
2022-07-25T22:08:58.642Z,3.30
2022-07-25T22:11:42.857Z,3.20
2022-07-25T22:14:17.175Z,3.50
2022-07-25T22:16:47.629Z,3.20
2022-07-25T22:19:22.164Z,3.60
2022-07-25T22:21:53.301Z,3.00
2022-07-25T22:24:23.603Z,3.20
2022-07-25T22:26:53.982Z,3.00
2022-07-25T22:29:24.410Z,3.00
2022-07-25T22:31:54.917Z,3.30
2022-07-25T22:34:25.605Z,3.80
2022-07-25T22:36:56.136Z,3.10
2022-07-25T22:39:26.773Z,3.30
2022-07-25T22:41:57.216Z,3.20
2022-07-25T22:44:28.578Z,3.00
2022-07-25T22:46:59.164Z,2.70
2022-07-25T22:49:29.830Z,3.30
2022-07-25T22:52:00.451Z,3.00
2022-07-25T22:54:30.774Z,2.90
2022-07-25T22:57:01.219Z,2.60
2022-07-25T22:59:31.775Z,3.00
2022-07-25T23:02:12.684Z,3.20
2022-07-25T23:04:43.263Z,3.20
2022-07-25T23:07:13.986Z,3.70
2022-07-25T23:09:44.728Z,2.90
2022-07-25T23:12:15.221Z,3.50
2022-07-25T23:14:45.668Z,3.10
2022-07-25T23:17:19.901Z,3.20
2022-07-25T23:19:51.937Z,3.30
2022-07-25T23:22:23.770Z,2.90
2022-07-25T23:24:54.132Z,2.80
2022-07-25T23:27:24.748Z,3.10
2022-07-25T23:29:55.354Z,3.00
2022-07-25T23:32:25.726Z,3.10
2022-07-25T23:34:56.137Z,3.70
2022-07-25T23:37:26.898Z,3.00
2022-07-25T23:39:57.270Z,3.30
2022-07-25T23:42:27.719Z,2.90
2022-07-25T23:44:58.489Z,2.90
2022-07-25T23:47:39.740Z,2.80
2022-07-25T23:50:12.564Z,3.20
2022-07-25T23:52:43.002Z,3.00
2022-07-25T23:55:13.581Z,3.20
2022-07-25T23:57:44.015Z,3.30
